createdAt,value
2023-12-10T00:01:32.555Z,3.62
2023-12-10T00:03:59.619Z,4.08
2023-12-10T00:06:26.681Z,4.11
2023-12-10T00:08:53.758Z,4.26
2023-12-10T00:11:20.693Z,4.34
2023-12-10T00:13:47.827Z,4.45
2023-12-10T00:16:15.019Z,4.28
2023-12-10T00:18:42.105Z,4.30
2023-12-10T00:21:13.729Z,4.38
2023-12-10T00:23:40.772Z,4.14
2023-12-10T00:26:07.817Z,4.15
2023-12-10T00:28:34.726Z,4.86
2023-12-10T00:31:01.752Z,4.03
2023-12-10T00:33:28.817Z,3.95
2023-12-10T00:35:55.863Z,4.29
2023-12-10T00:38:22.795Z,3.95
2023-12-10T00:40:49.710Z,4.04
2023-12-10T00:43:16.751Z,4.05
2023-12-10T00:45:44.241Z,4.43
2023-12-10T00:48:11.254Z,4.24
2023-12-10T00:50:38.309Z,3.52
2023-12-10T00:53:05.752Z,3.82
2023-12-10T00:55:32.819Z,3.99
2023-12-10T00:57:59.764Z,3.69
2023-12-10T01:00:26.829Z,3.80
2023-12-10T01:02:53.810Z,3.72
2023-12-10T01:05:20.894Z,3.98
2023-12-10T01:07:47.882Z,3.65
2023-12-10T01:10:14.832Z,3.72
2023-12-10T01:12:41.768Z,4.22
2023-12-10T01:15:08.967Z,3.64
2023-12-10T01:17:35.926Z,3.78
2023-12-10T01:20:04.055Z,3.58
2023-12-10T01:22:32.187Z,3.55
2023-12-10T01:25:01.900Z,4.37
2023-12-10T01:27:29.450Z,4.23
2023-12-10T01:29:56.630Z,4.29
2023-12-10T01:32:23.566Z,4.30
2023-12-10T01:34:50.729Z,4.53
2023-12-10T01:37:17.876Z,4.64
2023-12-10T01:39:44.942Z,4.29
2023-12-10T01:42:11.983Z,3.88
2023-12-10T01:44:39.013Z,4.89
2023-12-10T01:47:06.065Z,4.31
2023-12-10T01:49:33.542Z,4.29
2023-12-10T01:52:00.732Z,4.12
2023-12-10T01:54:27.708Z,4.52
2023-12-10T01:57:06.104Z,4.21
2023-12-10T01:59:36.377Z,4.83
2023-12-10T02:02:04.354Z,4.64
2023-12-10T02:04:31.512Z,4.26
2023-12-10T02:06:58.511Z,4.26
2023-12-10T02:09:25.464Z,3.83
2023-12-10T02:11:54.156Z,3.88
2023-12-10T02:14:21.109Z,4.01
2023-12-10T02:16:48.080Z,3.79
2023-12-10T02:19:15.180Z,3.73
2023-12-10T02:21:47.376Z,3.73
2023-12-10T02:24:26.985Z,3.60
2023-12-10T02:26:54.248Z,3.47
2023-12-10T02:29:21.221Z,3.49
2023-12-10T02:31:48.112Z,3.11
2023-12-10T02:34:15.122Z,3.45
2023-12-10T02:36:42.091Z,3.46
2023-12-10T02:39:08.994Z,3.40
2023-12-10T02:41:35.884Z,3.58
2023-12-10T02:44:02.838Z,2.84
2023-12-10T02:46:29.705Z,3.11
2023-12-10T02:48:56.659Z,3.26
2023-12-10T02:51:23.645Z,2.87
2023-12-10T02:53:50.607Z,3.14
2023-12-10T02:56:17.537Z,3.28
2023-12-10T02:58:44.382Z,3.36
2023-12-10T03:01:11.602Z,3.01
2023-12-10T03:03:38.816Z,3.31
2023-12-10T03:06:05.862Z,3.03
2023-12-10T03:08:32.734Z,3.05
2023-12-10T03:10:59.810Z,3.16
2023-12-10T03:13:26.789Z,2.68
2023-12-10T03:15:53.766Z,3.28
2023-12-10T03:18:20.905Z,2.95
2023-12-10T03:20:47.843Z,3.18
2023-12-10T03:23:14.771Z,2.68
2023-12-10T03:25:41.785Z,2.87
2023-12-10T03:28:08.745Z,3.26
2023-12-10T03:30:35.940Z,2.71
2023-12-10T03:33:02.959Z,2.68
2023-12-10T03:35:29.911Z,2.54
2023-12-10T03:37:56.742Z,2.98
2023-12-10T03:40:23.625Z,2.80
2023-12-10T03:42:50.652Z,2.98
2023-12-10T03:45:17.599Z,3.20
2023-12-10T03:47:44.568Z,2.77
2023-12-10T03:50:11.666Z,2.80
2023-12-10T03:52:38.571Z,2.63
2023-12-10T03:55:06.340Z,2.79
2023-12-10T03:57:33.371Z,3.55
2023-12-10T04:00:00.418Z,3.16
2023-12-10T04:02:27.502Z,3.06
2023-12-10T04:04:54.579Z,2.92
2023-12-10T04:07:21.534Z,3.09
2023-12-10T04:09:48.454Z,3.06
2023-12-10T04:12:15.455Z,2.96
2023-12-10T04:14:42.375Z,2.80
2023-12-10T04:17:09.286Z,2.99
2023-12-10T04:19:36.431Z,2.89
2023-12-10T04:22:03.397Z,2.59
2023-12-10T04:24:30.278Z,2.80
2023-12-10T04:26:57.169Z,2.71
2023-12-10T04:29:24.092Z,2.62
2023-12-10T04:31:50.947Z,2.85
2023-12-10T04:34:18.035Z,2.73
2023-12-10T04:36:44.979Z,2.41
2023-12-10T04:39:11.934Z,2.95
2023-12-10T04:41:38.911Z,2.25
2023-12-10T04:44:05.906Z,2.63
2023-12-10T04:46:32.763Z,2.55
2023-12-10T04:48:59.831Z,2.42
2023-12-10T04:51:26.833Z,2.47
2023-12-10T04:53:53.708Z,2.38
2023-12-10T04:56:20.576Z,2.41
2023-12-10T04:58:47.493Z,2.26
2023-12-10T05:01:14.471Z,2.76
2023-12-10T05:03:41.488Z,2.14
2023-12-10T05:06:09.142Z,2.16
2023-12-10T05:08:36.116Z,2.15
2023-12-10T05:11:03.046Z,2.34
2023-12-10T05:13:30.684Z,2.53
2023-12-10T05:15:57.678Z,2.72
2023-12-10T05:18:25.842Z,2.43
2023-12-10T05:20:52.806Z,3.04
2023-12-10T05:23:19.727Z,3.19
2023-12-10T05:25:46.616Z,2.76
2023-12-10T05:28:13.525Z,3.22
2023-12-10T05:30:40.435Z,2.94
2023-12-10T05:33:07.557Z,3.21
2023-12-10T05:35:34.468Z,2.93
2023-12-10T05:38:01.398Z,3.07
2023-12-10T05:40:28.393Z,3.28
2023-12-10T05:42:55.329Z,3.11
2023-12-10T05:45:22.297Z,3.45
2023-12-10T05:47:49.331Z,3.41
2023-12-10T05:50:16.279Z,3.23
2023-12-10T05:52:43.179Z,3.58
2023-12-10T05:55:10.059Z,3.47
2023-12-10T05:57:36.947Z,3.04
2023-12-10T06:00:04.534Z,3.31
2023-12-10T06:02:31.920Z,3.16
2023-12-10T06:04:58.782Z,3.39
2023-12-10T06:07:25.650Z,3.18
2023-12-10T06:09:52.625Z,3.31
2023-12-10T06:12:19.550Z,3.28
2023-12-10T06:14:46.406Z,3.66
2023-12-10T06:17:13.284Z,3.19
2023-12-10T06:19:40.270Z,3.10
2023-12-10T06:22:07.229Z,3.18
2023-12-10T06:24:34.099Z,3.59
2023-12-10T06:27:01.016Z,3.45
2023-12-10T06:29:27.919Z,3.44
2023-12-10T06:31:54.792Z,3.68
2023-12-10T06:34:21.816Z,3.43
2023-12-10T06:36:49.007Z,4.01
2023-12-10T06:39:15.910Z,3.91
2023-12-10T06:41:42.918Z,3.75
2023-12-10T06:44:09.865Z,4.18
2023-12-10T06:46:38.143Z,3.83
2023-12-10T06:49:05.071Z,4.26
2023-12-10T06:51:32.018Z,4.20
2023-12-10T06:53:58.958Z,3.92
2023-12-10T06:56:25.852Z,4.05
2023-12-10T06:58:52.741Z,3.95
2023-12-10T07:01:19.655Z,4.07
2023-12-10T07:03:46.701Z,3.91
2023-12-10T07:06:13.761Z,3.85
2023-12-10T07:08:40.611Z,3.77
2023-12-10T07:11:07.457Z,3.12
2023-12-10T07:13:34.316Z,3.61
2023-12-10T07:16:01.258Z,3.11
2023-12-10T07:18:28.270Z,3.45
2023-12-10T07:20:55.172Z,3.55
2023-12-10T07:23:22.033Z,3.48
2023-12-10T07:25:48.929Z,4.73
2023-12-10T07:28:15.803Z,5.02
2023-12-10T07:30:42.753Z,3.80
2023-12-10T07:33:09.785Z,3.88
2023-12-10T07:35:36.707Z,3.51
2023-12-10T07:38:03.657Z,3.87
2023-12-10T07:40:30.524Z,11.60
2023-12-10T07:42:57.434Z,9.27
2023-12-10T07:45:34.533Z,3.29
2023-12-10T07:48:11.662Z,3.24
2023-12-10T07:50:38.585Z,3.35
2023-12-10T07:53:06.273Z,3.60
2023-12-10T07:55:33.420Z,3.48
2023-12-10T07:58:00.421Z,3.33
2023-12-10T08:00:28.506Z,3.12
2023-12-10T08:02:56.863Z,8.78
2023-12-10T08:05:23.849Z,6.98
2023-12-10T08:07:54.956Z,4.34
2023-12-10T08:10:22.029Z,4.63
2023-12-10T08:12:49.946Z,3.49
2023-12-10T08:15:27.227Z,3.66
2023-12-10T08:17:54.245Z,3.41
2023-12-10T08:20:21.160Z,5.15
2023-12-10T08:22:49.458Z,3.39
2023-12-10T08:25:16.353Z,3.93
2023-12-10T08:27:48.004Z,4.76
2023-12-10T08:30:15.041Z,4.71
2023-12-10T08:32:41.996Z,3.63
2023-12-10T08:35:09.016Z,3.54
2023-12-10T08:37:35.936Z,3.75
2023-12-10T08:40:04.058Z,3.68
2023-12-10T08:42:33.960Z,3.95
2023-12-10T08:45:01.088Z,4.02
2023-12-10T08:47:27.964Z,3.77
2023-12-10T08:49:55.483Z,3.60
2023-12-10T08:52:22.358Z,3.85
2023-12-10T08:54:49.181Z,3.92
2023-12-10T08:57:16.267Z,3.35
2023-12-10T08:59:43.190Z,3.39
2023-12-10T09:02:10.082Z,3.94
2023-12-10T09:04:36.924Z,3.57
2023-12-10T09:07:03.927Z,3.65
2023-12-10T09:09:30.833Z,3.30
2023-12-10T09:12:00.420Z,3.70
2023-12-10T09:14:27.312Z,3.78
2023-12-10T09:16:56.105Z,3.52
2023-12-10T09:19:23.124Z,3.57
2023-12-10T09:21:50.212Z,3.79
2023-12-10T09:24:20.080Z,3.82
2023-12-10T09:26:46.977Z,3.68
2023-12-10T09:29:13.815Z,3.94
2023-12-10T09:31:40.717Z,3.65
2023-12-10T09:34:07.646Z,3.68
2023-12-10T09:36:34.495Z,3.81
2023-12-10T09:39:01.465Z,3.92
2023-12-10T09:41:28.261Z,3.48
2023-12-10T09:43:55.085Z,3.71
2023-12-10T09:46:23.343Z,3.46
2023-12-10T09:48:51.607Z,3.71
2023-12-10T09:51:19.912Z,3.94
2023-12-10T09:53:47.730Z,3.78
2023-12-10T09:56:14.633Z,3.96
2023-12-10T09:58:41.519Z,3.47
2023-12-10T10:01:12.640Z,3.94
2023-12-10T10:03:39.571Z,3.89
2023-12-10T10:06:06.615Z,3.74
2023-12-10T10:08:33.527Z,3.91
2023-12-10T10:11:00.426Z,4.01
2023-12-10T10:13:27.361Z,4.05
2023-12-10T10:15:55.977Z,3.84
2023-12-10T10:18:33.180Z,3.87
2023-12-10T10:21:00.111Z,4.11
2023-12-10T10:23:27.284Z,3.69
2023-12-10T10:25:54.266Z,4.12
2023-12-10T10:28:31.734Z,4.15
2023-12-10T10:31:21.034Z,4.10
2023-12-10T10:33:47.224Z,3.68
2023-12-10T10:36:19.122Z,4.15
2023-12-10T10:38:46.310Z,3.94
2023-12-10T10:41:14.604Z,4.06
2023-12-10T10:43:45.985Z,4.50
2023-12-10T10:46:12.948Z,3.65
2023-12-10T10:48:42.331Z,3.97
2023-12-10T10:51:32.874Z,4.09
2023-12-10T10:54:01.211Z,4.08
2023-12-10T10:56:30.149Z,4.23
2023-12-10T10:58:56.999Z,4.05
2023-12-10T11:01:44.830Z,3.95
2023-12-10T11:04:17.337Z,4.30
2023-12-10T11:06:48.436Z,3.87
2023-12-10T11:09:17.957Z,4.20
2023-12-10T11:11:45.040Z,4.49
2023-12-10T11:14:23.032Z,3.98
2023-12-10T11:16:50.563Z,4.33
2023-12-10T11:19:17.824Z,3.93
2023-12-10T11:21:46.451Z,5.97
2023-12-10T11:24:13.385Z,3.68
2023-12-10T11:26:40.325Z,3.87
2023-12-10T11:29:09.489Z,4.05
2023-12-10T11:31:40.513Z,3.60
2023-12-10T11:34:07.556Z,4.09
2023-12-10T11:36:38.746Z,3.77
2023-12-10T11:39:12.593Z,3.91
2023-12-10T11:41:48.719Z,3.87
2023-12-10T11:44:23.292Z,3.99
2023-12-10T11:46:52.751Z,4.11
2023-12-10T11:49:21.174Z,3.80
2023-12-10T11:51:49.039Z,4.32
2023-12-10T11:54:16.333Z,3.80
2023-12-10T11:56:43.451Z,6.64
2023-12-10T11:59:12.349Z,5.24
2023-12-10T12:01:40.074Z,3.56
2023-12-10T12:04:07.079Z,3.76
2023-12-10T12:06:41.915Z,3.71
2023-12-10T12:09:09.329Z,4.16
2023-12-10T12:11:36.205Z,3.91
2023-12-10T12:14:03.562Z,4.19
2023-12-10T12:16:30.623Z,3.94
2023-12-10T12:18:57.584Z,3.51
2023-12-10T12:21:24.518Z,3.47
2023-12-10T12:23:51.336Z,3.37
2023-12-10T12:26:18.163Z,3.51
2023-12-10T12:28:47.784Z,3.69
2023-12-10T12:31:15.403Z,3.56
2023-12-10T12:33:42.292Z,3.45
2023-12-10T12:36:09.483Z,3.66
2023-12-10T12:38:36.365Z,3.40
2023-12-10T12:41:03.232Z,3.07
2023-12-10T12:43:30.003Z,3.71
2023-12-10T12:45:56.842Z,3.33
2023-12-10T12:51:09.026Z,3.52
2023-12-10T12:54:10.357Z,4.08
2023-12-10T12:56:22.671Z,3.67
2023-12-10T12:58:50.931Z,3.25
2023-12-10T13:01:17.996Z,3.25
2023-12-10T13:03:55.464Z,3.42
2023-12-10T13:06:22.506Z,3.20
2023-12-10T13:08:49.360Z,3.26
2023-12-10T13:11:16.200Z,3.48
2023-12-10T13:13:42.990Z,3.61
2023-12-10T13:16:09.865Z,3.34
2023-12-10T13:18:36.739Z,3.74
2023-12-10T13:21:09.759Z,3.49
2023-12-10T13:23:47.981Z,3.63
2023-12-10T13:26:15.157Z,3.75
2023-12-10T13:28:41.971Z,3.90
2023-12-10T13:31:08.762Z,3.20
2023-12-10T13:33:35.684Z,3.41
2023-12-10T13:36:02.613Z,3.53
2023-12-10T13:38:29.401Z,3.20
2023-12-10T13:40:57.055Z,3.42
2023-12-10T13:43:23.925Z,3.38
2023-12-10T13:45:50.844Z,3.61
2023-12-10T13:48:17.755Z,3.29
2023-12-10T13:50:44.626Z,3.58
2023-12-10T13:53:11.449Z,3.08
2023-12-10T13:55:38.229Z,3.32
2023-12-10T13:58:05.336Z,3.80
2023-12-10T14:00:32.353Z,3.07
2023-12-10T14:02:59.242Z,3.23
2023-12-10T14:05:26.123Z,2.86
2023-12-10T14:07:52.985Z,3.18
2023-12-10T14:10:19.895Z,2.94
2023-12-10T14:12:46.769Z,3.19
2023-12-10T14:15:13.637Z,3.05
2023-12-10T14:17:40.834Z,3.13
2023-12-10T14:20:08.425Z,2.80
2023-12-10T14:22:35.228Z,2.93
2023-12-10T14:25:02.402Z,5.71
2023-12-10T14:27:29.675Z,3.14
2023-12-10T14:29:56.631Z,3.16
2023-12-10T14:32:23.416Z,3.19
2023-12-10T14:34:50.304Z,3.06
2023-12-10T14:37:17.169Z,3.37
2023-12-10T14:39:43.967Z,2.51
2023-12-10T14:42:10.783Z,3.11
2023-12-10T14:44:37.601Z,3.25
2023-12-10T14:47:04.467Z,3.03
2023-12-10T14:49:31.264Z,3.35
2023-12-10T14:51:58.089Z,3.66
2023-12-10T14:54:25.496Z,3.03
2023-12-10T14:56:52.426Z,3.13
2023-12-10T14:59:19.926Z,5.46
2023-12-10T15:01:58.653Z,18.64
2023-12-10T15:04:33.193Z,4.28
2023-12-10T15:07:00.084Z,3.70
2023-12-10T15:09:26.997Z,2.85
2023-12-10T15:11:53.863Z,3.01
2023-12-10T15:14:20.675Z,2.89
2023-12-10T15:16:47.465Z,3.52
2023-12-10T15:19:14.465Z,4.10
2023-12-10T15:21:41.371Z,4.19
2023-12-10T15:24:08.163Z,4.40
2023-12-10T15:26:34.950Z,4.06
2023-12-10T15:29:01.770Z,3.77
2023-12-10T15:31:28.573Z,3.48
2023-12-10T15:33:55.588Z,4.17
2023-12-10T15:36:22.467Z,6.05
2023-12-10T15:38:49.266Z,4.30
2023-12-10T15:41:16.072Z,3.46
2023-12-10T15:43:42.880Z,4.22
2023-12-10T15:46:09.772Z,3.72
2023-12-10T15:48:36.837Z,4.18
2023-12-10T15:51:03.919Z,3.30
2023-12-10T15:53:30.717Z,3.24
2023-12-10T15:55:57.500Z,3.45
2023-12-10T15:58:24.294Z,3.83
2023-12-10T16:00:51.187Z,3.76
2023-12-10T16:03:18.098Z,3.13
2023-12-10T16:05:45.014Z,3.34
2023-12-10T16:08:11.868Z,6.17
2023-12-10T16:10:38.720Z,20.78
2023-12-10T16:13:05.552Z,12.93
2023-12-10T16:15:32.537Z,4.61
2023-12-10T16:17:59.599Z,3.51
2023-12-10T16:20:26.557Z,4.06
2023-12-10T16:22:53.388Z,4.64
2023-12-10T16:25:20.208Z,4.13
2023-12-10T16:27:47.167Z,4.06
2023-12-10T16:30:14.041Z,4.36
2023-12-10T16:32:41.040Z,4.85
2023-12-10T16:35:08.250Z,3.66
2023-12-10T16:37:35.176Z,3.17
2023-12-10T16:40:03.098Z,3.28
2023-12-10T16:42:30.090Z,4.34
2023-12-10T16:44:57.506Z,3.64
2023-12-10T16:47:24.736Z,3.46
2023-12-10T16:49:52.389Z,4.23
2023-12-10T16:52:19.392Z,4.56
2023-12-10T16:54:46.193Z,4.82
2023-12-10T16:57:13.004Z,7.79
2023-12-10T16:59:39.784Z,6.21
2023-12-10T17:02:06.823Z,4.45
2023-12-10T17:04:34.037Z,4.28
2023-12-10T17:07:00.977Z,4.41
2023-12-10T17:09:27.804Z,3.97
2023-12-10T17:11:54.636Z,4.34
2023-12-10T17:14:22.052Z,4.76
2023-12-10T17:16:48.886Z,5.42
2023-12-10T17:19:17.776Z,5.44
2023-12-10T17:21:46.190Z,4.51
2023-12-10T17:24:17.225Z,4.99
2023-12-10T17:26:44.048Z,5.02
2023-12-10T17:29:11.011Z,6.41
2023-12-10T17:31:37.807Z,8.42
2023-12-10T17:34:05.010Z,4.49
2023-12-10T17:36:31.934Z,4.67
2023-12-10T17:38:58.731Z,4.96
2023-12-10T17:41:25.515Z,4.69
2023-12-10T17:43:52.327Z,4.53
2023-12-10T17:46:19.134Z,4.60
2023-12-10T17:48:48.056Z,5.50
2023-12-10T17:51:17.106Z,5.75
2023-12-10T17:53:43.977Z,5.99
2023-12-10T17:56:10.904Z,5.24
2023-12-10T17:58:37.713Z,6.14
2023-12-10T18:01:04.664Z,8.10
2023-12-10T18:03:31.634Z,11.24
2023-12-10T18:05:58.716Z,8.68
2023-12-10T18:08:25.518Z,9.67
2023-12-10T18:10:52.384Z,6.90
2023-12-10T18:13:19.276Z,5.25
2023-12-10T18:15:46.126Z,4.53
2023-12-10T18:18:12.971Z,4.52
2023-12-10T18:20:39.795Z,4.02
2023-12-10T18:23:06.585Z,3.60
2023-12-10T18:25:33.376Z,3.89
2023-12-10T18:28:00.357Z,5.60
2023-12-10T18:30:27.256Z,16.31
2023-12-10T18:32:54.084Z,4.12
2023-12-10T18:35:20.935Z,3.70
2023-12-10T18:37:47.724Z,3.90
2023-12-10T18:40:14.616Z,3.43
2023-12-10T18:42:41.488Z,3.38
2023-12-10T18:45:08.575Z,3.66
2023-12-10T18:47:35.407Z,3.67
2023-12-10T18:50:02.420Z,3.64
2023-12-10T18:52:29.285Z,3.50
2023-12-10T18:54:56.162Z,3.72
2023-12-10T18:57:22.994Z,3.86
2023-12-10T18:59:49.806Z,4.86
2023-12-10T19:02:16.626Z,4.82
2023-12-10T19:04:43.477Z,4.13
2023-12-10T19:07:10.300Z,3.92
2023-12-10T19:09:37.290Z,3.43
2023-12-10T19:12:04.214Z,3.61
2023-12-10T19:14:32.791Z,3.50
2023-12-10T19:17:01.012Z,3.44
2023-12-10T19:19:27.898Z,3.14
2023-12-10T19:21:54.895Z,3.75
2023-12-10T19:24:21.688Z,3.58
2023-12-10T19:26:48.493Z,3.71
2023-12-10T19:29:15.287Z,3.80
2023-12-10T19:31:42.078Z,3.72
2023-12-10T19:34:08.976Z,3.73
2023-12-10T19:36:35.834Z,4.63
2023-12-10T19:39:02.637Z,5.16
2023-12-10T19:41:29.422Z,4.77
2023-12-10T19:43:56.202Z,4.11
2023-12-10T19:46:22.987Z,4.44
2023-12-10T19:48:49.831Z,6.45
2023-12-10T19:51:16.999Z,6.72
2023-12-10T19:53:43.788Z,4.79
2023-12-10T19:56:10.835Z,4.67
2023-12-10T19:58:37.777Z,6.75
2023-12-10T20:01:04.867Z,7.55
2023-12-10T20:03:33.359Z,5.67
2023-12-10T20:06:00.384Z,5.34
2023-12-10T20:08:27.318Z,5.06
2023-12-10T20:10:54.177Z,5.38
2023-12-10T20:13:21.035Z,8.33
2023-12-10T20:15:47.951Z,37.50
2023-12-10T20:18:17.806Z,38.70
2023-12-10T20:20:45.714Z,11.90
2023-12-10T20:23:12.490Z,5.01
2023-12-10T20:25:39.300Z,4.87
2023-12-10T20:28:06.156Z,4.43
2023-12-10T20:30:33.358Z,4.34
2023-12-10T20:33:00.592Z,3.87
2023-12-10T20:35:27.617Z,3.92
2023-12-10T20:37:54.500Z,3.49
2023-12-10T20:40:21.292Z,3.62
2023-12-10T20:42:48.206Z,3.90
2023-12-10T20:45:15.139Z,3.86
2023-12-10T20:47:42.120Z,4.46
2023-12-10T20:50:09.324Z,10.74
2023-12-10T20:52:36.301Z,8.07
2023-12-10T20:55:03.207Z,4.58
2023-12-10T20:57:30.231Z,4.22
2023-12-10T20:59:57.210Z,3.64
2023-12-10T21:02:29.345Z,3.41
2023-12-10T21:04:57.144Z,2.87
2023-12-10T21:07:24.056Z,2.86
2023-12-10T21:09:51.033Z,2.83
2023-12-10T21:12:17.894Z,2.35
2023-12-10T21:14:44.680Z,2.03
2023-12-10T21:17:14.838Z,2.71
2023-12-10T21:19:43.770Z,1.96
2023-12-10T21:22:10.713Z,1.76
2023-12-10T21:24:37.561Z,1.85
2023-12-10T21:27:04.514Z,7.30
2023-12-10T21:29:31.292Z,2.49
2023-12-10T21:31:58.058Z,1.54
2023-12-10T21:34:24.934Z,1.65
2023-12-10T21:36:51.846Z,2.06
2023-12-10T21:39:18.659Z,2.08
2023-12-10T21:41:45.506Z,2.93
2023-12-10T21:44:12.272Z,2.51
2023-12-10T21:46:39.054Z,1.74
2023-12-10T21:49:06.115Z,3.20
2023-12-10T21:51:33.053Z,2.14
2023-12-10T21:53:59.935Z,2.26
2023-12-10T21:56:26.709Z,2.01
2023-12-10T21:58:53.483Z,1.62
2023-12-10T22:01:21.675Z,1.45
2023-12-10T22:03:48.906Z,1.68
2023-12-10T22:06:15.757Z,1.70
2023-12-10T22:08:42.548Z,1.65
2023-12-10T22:11:09.502Z,1.59
2023-12-10T22:13:36.358Z,1.69
2023-12-10T22:16:03.184Z,1.59
2023-12-10T22:18:30.053Z,1.50
2023-12-10T22:20:56.909Z,1.55
2023-12-10T22:23:23.682Z,1.53
2023-12-10T22:25:50.563Z,1.52
2023-12-10T22:28:17.341Z,1.70
2023-12-10T22:30:44.229Z,1.59
2023-12-10T22:33:11.109Z,1.81
2023-12-10T22:35:39.093Z,1.67
2023-12-10T22:38:05.901Z,1.95
2023-12-10T22:40:32.670Z,1.70
2023-12-10T22:42:59.489Z,1.98
2023-12-10T22:45:26.385Z,2.13
2023-12-10T22:47:53.457Z,2.09
2023-12-10T22:50:20.343Z,1.85
2023-12-10T22:52:47.521Z,1.81
2023-12-10T22:55:14.492Z,2.13
2023-12-10T22:57:41.356Z,2.12
2023-12-10T23:00:09.036Z,2.09
2023-12-10T23:02:35.799Z,2.15
2023-12-10T23:05:02.750Z,2.09
2023-12-10T23:07:29.853Z,2.18
2023-12-10T23:09:56.877Z,1.89
2023-12-10T23:12:23.739Z,1.87
2023-12-10T23:14:50.545Z,2.10
2023-12-10T23:17:17.306Z,2.09
2023-12-10T23:19:44.158Z,1.88
2023-12-10T23:22:11.157Z,2.15
2023-12-10T23:24:38.050Z,1.97
2023-12-10T23:27:05.014Z,2.26
2023-12-10T23:29:31.833Z,2.27
2023-12-10T23:31:58.649Z,2.31
2023-12-10T23:34:25.467Z,2.40
2023-12-10T23:36:52.305Z,2.40
2023-12-10T23:39:19.134Z,2.26
2023-12-10T23:41:45.884Z,2.37
2023-12-10T23:44:12.664Z,2.05
2023-12-10T23:46:39.468Z,2.28
2023-12-10T23:49:06.316Z,2.43
2023-12-10T23:51:33.255Z,2.21
2023-12-10T23:54:00.042Z,2.22
2023-12-10T23:56:29.589Z,2.25
2023-12-10T23:58:57.207Z,2.12
